sensor_id;sensor_type;location;lat;lon;timestamp;temperature;humidity
10447;DHT22;5271;44.422;26.092;2023-03-19T00:01:36;14.80;71.10
10447;DHT22;5271;44.422;26.092;2023-03-19T00:04:03;14.70;71.20
10447;DHT22;5271;44.422;26.092;2023-03-19T00:06:30;14.80;71.20
10447;DHT22;5271;44.422;26.092;2023-03-19T00:08:57;14.80;71.20
10447;DHT22;5271;44.422;26.092;2023-03-19T00:11:24;14.80;71.50
10447;DHT22;5271;44.422;26.092;2023-03-19T00:13:52;14.80;71.90
10447;DHT22;5271;44.422;26.092;2023-03-19T00:16:19;14.80;72.00
10447;DHT22;5271;44.422;26.092;2023-03-19T00:18:46;14.80;72.00
10447;DHT22;5271;44.422;26.092;2023-03-19T00:21:13;14.80;72.20
10447;DHT22;5271;44.422;26.092;2023-03-19T00:23:40;14.80;72.70
10447;DHT22;5271;44.422;26.092;2023-03-19T00:26:07;14.90;72.70
10447;DHT22;5271;44.422;26.092;2023-03-19T00:28:34;14.90;73.10
10447;DHT22;5271;44.422;26.092;2023-03-19T00:31:13;14.90;73.00
10447;DHT22;5271;44.422;26.092;2023-03-19T00:33:41;14.80;73.80
10447;DHT22;5271;44.422;26.092;2023-03-19T00:36:09;14.80;73.50
10447;DHT22;5271;44.422;26.092;2023-03-19T00:38:36;14.80;73.90
10447;DHT22;5271;44.422;26.092;2023-03-19T00:41:04;14.70;74.10
10447;DHT22;5271;44.422;26.092;2023-03-19T00:43:32;14.70;74.50
10447;DHT22;5271;44.422;26.092;2023-03-19T00:45:59;14.70;74.80
10447;DHT22;5271;44.422;26.092;2023-03-19T00:48:27;14.70;75.50
10447;DHT22;5271;44.422;26.092;2023-03-19T00:50:54;14.60;75.30
10447;DHT22;5271;44.422;26.092;2023-03-19T00:53:21;14.60;75.30
10447;DHT22;5271;44.422;26.092;2023-03-19T00:55:48;14.60;75.60
10447;DHT22;5271;44.422;26.092;2023-03-19T00:58:15;14.60;75.70
10447;DHT22;5271;44.422;26.092;2023-03-19T01:00:42;14.50;75.80
10447;DHT22;5271;44.422;26.092;2023-03-19T01:03:09;14.70;75.90
10447;DHT22;5271;44.422;26.092;2023-03-19T01:05:38;14.70;76.00
10447;DHT22;5271;44.422;26.092;2023-03-19T01:08:04;14.70;76.10
10447;DHT22;5271;44.422;26.092;2023-03-19T01:10:32;14.90;76.20
10447;DHT22;5271;44.422;26.092;2023-03-19T01:13:00;14.80;76.60
10447;DHT22;5271;44.422;26.092;2023-03-19T01:15:27;14.80;77.30
10447;DHT22;5271;44.422;26.092;2023-03-19T01:17:54;14.70;77.30
10447;DHT22;5271;44.422;26.092;2023-03-19T01:20:21;14.60;77.70
10447;DHT22;5271;44.422;26.092;2023-03-19T01:22:50;14.60;78.10
10447;DHT22;5271;44.422;26.092;2023-03-19T01:25:17;14.50;78.80
10447;DHT22;5271;44.422;26.092;2023-03-19T01:27:44;14.40;79.50
10447;DHT22;5271;44.422;26.092;2023-03-19T01:30:11;14.30;79.40
10447;DHT22;5271;44.422;26.092;2023-03-19T01:32:38;14.30;80.20
10447;DHT22;5271;44.422;26.092;2023-03-19T01:35:05;14.30;80.00
10447;DHT22;5271;44.422;26.092;2023-03-19T01:37:34;14.30;80.40
10447;DHT22;5271;44.422;26.092;2023-03-19T01:40:03;14.30;80.70
10447;DHT22;5271;44.422;26.092;2023-03-19T01:42:30;14.30;81.10
10447;DHT22;5271;44.422;26.092;2023-03-19T01:44:57;14.30;81.20
10447;DHT22;5271;44.422;26.092;2023-03-19T01:47:29;14.30;81.80
10447;DHT22;5271;44.422;26.092;2023-03-19T01:49:58;14.20;82.60
10447;DHT22;5271;44.422;26.092;2023-03-19T01:52:28;14.20;83.10
10447;DHT22;5271;44.422;26.092;2023-03-19T01:54:56;14.20;82.60
10447;DHT22;5271;44.422;26.092;2023-03-19T01:57:26;14.10;82.90
10447;DHT22;5271;44.422;26.092;2023-03-19T01:59:56;14.10;83.30
10447;DHT22;5271;44.422;26.092;2023-03-19T02:02:27;14.10;83.80
10447;DHT22;5271;44.422;26.092;2023-03-19T02:04:58;14.00;84.10
10447;DHT22;5271;44.422;26.092;2023-03-19T02:07:27;14.00;84.00
10447;DHT22;5271;44.422;26.092;2023-03-19T02:09:54;14.10;84.50
10447;DHT22;5271;44.422;26.092;2023-03-19T02:12:22;14.10;84.30
10447;DHT22;5271;44.422;26.092;2023-03-19T02:14:50;14.00;85.00
10447;DHT22;5271;44.422;26.092;2023-03-19T02:17:17;14.00;84.50
10447;DHT22;5271;44.422;26.092;2023-03-19T02:19:48;14.00;84.80
10447;DHT22;5271;44.422;26.092;2023-03-19T02:22:21;14.10;85.00
10447;DHT22;5271;44.422;26.092;2023-03-19T02:24:52;14.10;85.00
10447;DHT22;5271;44.422;26.092;2023-03-19T02:27:21;14.00;85.20
10447;DHT22;5271;44.422;26.092;2023-03-19T02:29:48;14.00;85.60
10447;DHT22;5271;44.422;26.092;2023-03-19T02:32:15;14.00;85.60
10447;DHT22;5271;44.422;26.092;2023-03-19T02:34:43;14.00;85.90
10447;DHT22;5271;44.422;26.092;2023-03-19T02:37:13;14.00;85.80
10447;DHT22;5271;44.422;26.092;2023-03-19T02:39:48;14.00;86.00
10447;DHT22;5271;44.422;26.092;2023-03-19T02:42:16;14.10;85.90
10447;DHT22;5271;44.422;26.092;2023-03-19T02:44:45;14.00;86.10
10447;DHT22;5271;44.422;26.092;2023-03-19T02:47:13;14.00;86.40
10447;DHT22;5271;44.422;26.092;2023-03-19T02:49:40;14.00;86.50
10447;DHT22;5271;44.422;26.092;2023-03-19T02:52:08;13.90;86.90
10447;DHT22;5271;44.422;26.092;2023-03-19T02:54:35;13.90;86.80
10447;DHT22;5271;44.422;26.092;2023-03-19T02:57:02;14.00;87.10
10447;DHT22;5271;44.422;26.092;2023-03-19T02:59:30;14.00;87.30
10447;DHT22;5271;44.422;26.092;2023-03-19T03:01:58;14.00;87.20
10447;DHT22;5271;44.422;26.092;2023-03-19T03:04:25;14.00;87.60
10447;DHT22;5271;44.422;26.092;2023-03-19T03:06:51;14.00;87.30
10447;DHT22;5271;44.422;26.092;2023-03-19T03:09:19;14.00;87.50
10447;DHT22;5271;44.422;26.092;2023-03-19T03:11:47;14.00;87.60
10447;DHT22;5271;44.422;26.092;2023-03-19T03:14:13;14.00;87.70
10447;DHT22;5271;44.422;26.092;2023-03-19T03:16:40;14.00;87.80
10447;DHT22;5271;44.422;26.092;2023-03-19T03:19:09;14.00;88.20
10447;DHT22;5271;44.422;26.092;2023-03-19T03:21:36;13.90;88.60
10447;DHT22;5271;44.422;26.092;2023-03-19T03:24:04;13.90;88.80
10447;DHT22;5271;44.422;26.092;2023-03-19T03:26:31;13.80;89.10
10447;DHT22;5271;44.422;26.092;2023-03-19T03:28:59;13.90;89.20
10447;DHT22;5271;44.422;26.092;2023-03-19T03:31:26;13.90;89.50
10447;DHT22;5271;44.422;26.092;2023-03-19T03:33:54;13.90;89.40
10447;DHT22;5271;44.422;26.092;2023-03-19T03:36:22;13.90;89.20
10447;DHT22;5271;44.422;26.092;2023-03-19T03:38:49;13.90;89.20
10447;DHT22;5271;44.422;26.092;2023-03-19T03:41:16;13.90;89.30
10447;DHT22;5271;44.422;26.092;2023-03-19T03:43:43;13.90;89.40
10447;DHT22;5271;44.422;26.092;2023-03-19T03:46:10;13.90;89.50
10447;DHT22;5271;44.422;26.092;2023-03-19T03:48:38;13.90;89.80
10447;DHT22;5271;44.422;26.092;2023-03-19T03:51:05;13.90;89.70
10447;DHT22;5271;44.422;26.092;2023-03-19T03:53:33;13.90;90.00
10447;DHT22;5271;44.422;26.092;2023-03-19T03:56:00;13.90;90.20
10447;DHT22;5271;44.422;26.092;2023-03-19T03:58:27;14.00;90.00
10447;DHT22;5271;44.422;26.092;2023-03-19T04:00:54;14.10;89.70
10447;DHT22;5271;44.422;26.092;2023-03-19T04:03:21;14.10;89.60
10447;DHT22;5271;44.422;26.092;2023-03-19T04:05:48;14.10;90.10
10447;DHT22;5271;44.422;26.092;2023-03-19T04:08:15;14.00;90.00
10447;DHT22;5271;44.422;26.092;2023-03-19T04:10:44;14.00;90.20
10447;DHT22;5271;44.422;26.092;2023-03-19T04:13:11;14.00;90.10
10447;DHT22;5271;44.422;26.092;2023-03-19T04:15:40;13.90;90.30
10447;DHT22;5271;44.422;26.092;2023-03-19T04:18:08;13.90;90.50
10447;DHT22;5271;44.422;26.092;2023-03-19T04:20:35;13.90;90.40
10447;DHT22;5271;44.422;26.092;2023-03-19T04:23:02;13.90;90.50
10447;DHT22;5271;44.422;26.092;2023-03-19T04:25:29;13.90;90.50
10447;DHT22;5271;44.422;26.092;2023-03-19T04:27:57;13.90;90.40
10447;DHT22;5271;44.422;26.092;2023-03-19T04:30:24;13.90;90.50
10447;DHT22;5271;44.422;26.092;2023-03-19T04:32:52;13.80;90.60
10447;DHT22;5271;44.422;26.092;2023-03-19T04:35:19;13.80;90.80
10447;DHT22;5271;44.422;26.092;2023-03-19T04:37:47;13.80;90.90
10447;DHT22;5271;44.422;26.092;2023-03-19T04:40:14;13.80;90.90
10447;DHT22;5271;44.422;26.092;2023-03-19T04:42:41;13.80;90.90
10447;DHT22;5271;44.422;26.092;2023-03-19T04:45:11;13.80;91.00
10447;DHT22;5271;44.422;26.092;2023-03-19T04:47:38;13.80;91.00
10447;DHT22;5271;44.422;26.092;2023-03-19T04:50:06;13.70;91.10
10447;DHT22;5271;44.422;26.092;2023-03-19T04:52:35;13.80;91.20
10447;DHT22;5271;44.422;26.092;2023-03-19T04:55:03;13.70;91.10
10447;DHT22;5271;44.422;26.092;2023-03-19T04:57:29;13.70;91.30
10447;DHT22;5271;44.422;26.092;2023-03-19T04:59:56;13.60;91.40
10447;DHT22;5271;44.422;26.092;2023-03-19T05:02:26;13.60;91.60
10447;DHT22;5271;44.422;26.092;2023-03-19T05:04:53;13.60;91.60
10447;DHT22;5271;44.422;26.092;2023-03-19T05:07:20;13.60;91.70
10447;DHT22;5271;44.422;26.092;2023-03-19T05:09:46;13.60;91.70
10447;DHT22;5271;44.422;26.092;2023-03-19T05:12:14;13.60;91.80
10447;DHT22;5271;44.422;26.092;2023-03-19T05:14:41;13.70;91.70
10447;DHT22;5271;44.422;26.092;2023-03-19T05:17:08;13.70;91.70
10447;DHT22;5271;44.422;26.092;2023-03-19T05:19:37;13.70;91.70
10447;DHT22;5271;44.422;26.092;2023-03-19T05:22:05;13.60;92.00
10447;DHT22;5271;44.422;26.092;2023-03-19T05:24:31;13.50;92.20
10447;DHT22;5271;44.422;26.092;2023-03-19T05:26:58;13.60;92.20
10447;DHT22;5271;44.422;26.092;2023-03-19T05:29:25;13.60;92.10
10447;DHT22;5271;44.422;26.092;2023-03-19T05:31:52;13.60;92.20
10447;DHT22;5271;44.422;26.092;2023-03-19T05:34:19;13.50;92.40
10447;DHT22;5271;44.422;26.092;2023-03-19T05:36:47;13.50;92.50
10447;DHT22;5271;44.422;26.092;2023-03-19T05:39:14;13.50;92.50
10447;DHT22;5271;44.422;26.092;2023-03-19T05:41:41;13.50;92.70
10447;DHT22;5271;44.422;26.092;2023-03-19T05:44:08;13.50;92.80
10447;DHT22;5271;44.422;26.092;2023-03-19T05:46:35;13.50;92.60
10447;DHT22;5271;44.422;26.092;2023-03-19T05:49:02;13.60;92.80
10447;DHT22;5271;44.422;26.092;2023-03-19T05:51:30;13.50;92.90
10447;DHT22;5271;44.422;26.092;2023-03-19T05:53:58;13.50;93.00
10447;DHT22;5271;44.422;26.092;2023-03-19T05:56:26;13.50;93.40
10447;DHT22;5271;44.422;26.092;2023-03-19T05:58:54;13.50;93.20
10447;DHT22;5271;44.422;26.092;2023-03-19T06:01:21;13.60;93.20
10447;DHT22;5271;44.422;26.092;2023-03-19T06:03:48;13.60;93.20
10447;DHT22;5271;44.422;26.092;2023-03-19T06:06:15;13.60;93.30
10447;DHT22;5271;44.422;26.092;2023-03-19T06:08:42;13.50;93.50
10447;DHT22;5271;44.422;26.092;2023-03-19T06:11:10;13.50;93.50
10447;DHT22;5271;44.422;26.092;2023-03-19T06:13:37;13.60;93.50
10447;DHT22;5271;44.422;26.092;2023-03-19T06:16:04;13.60;93.40
10447;DHT22;5271;44.422;26.092;2023-03-19T06:18:31;13.60;93.40
10447;DHT22;5271;44.422;26.092;2023-03-19T06:20:58;13.60;93.50
10447;DHT22;5271;44.422;26.092;2023-03-19T06:23:25;13.60;93.60
10447;DHT22;5271;44.422;26.092;2023-03-19T06:25:52;13.60;93.80
10447;DHT22;5271;44.422;26.092;2023-03-19T06:28:20;13.60;93.70
10447;DHT22;5271;44.422;26.092;2023-03-19T06:30:48;13.60;93.70
10447;DHT22;5271;44.422;26.092;2023-03-19T06:33:14;13.50;93.90
10447;DHT22;5271;44.422;26.092;2023-03-19T06:35:41;13.60;93.70
10447;DHT22;5271;44.422;26.092;2023-03-19T06:38:08;13.60;93.90
10447;DHT22;5271;44.422;26.092;2023-03-19T06:40:35;13.60;94.00
10447;DHT22;5271;44.422;26.092;2023-03-19T06:43:02;13.70;93.70
10447;DHT22;5271;44.422;26.092;2023-03-19T06:45:32;13.70;94.20
10447;DHT22;5271;44.422;26.092;2023-03-19T06:47:58;13.70;93.80
10447;DHT22;5271;44.422;26.092;2023-03-19T06:50:25;13.70;93.70
10447;DHT22;5271;44.422;26.092;2023-03-19T06:52:52;13.70;93.80
10447;DHT22;5271;44.422;26.092;2023-03-19T06:55:19;13.70;93.80
10447;DHT22;5271;44.422;26.092;2023-03-19T06:57:47;13.80;93.80
10447;DHT22;5271;44.422;26.092;2023-03-19T07:00:16;13.90;93.60
10447;DHT22;5271;44.422;26.092;2023-03-19T07:02:45;13.90;93.60
10447;DHT22;5271;44.422;26.092;2023-03-19T07:05:12;13.90;93.60
10447;DHT22;5271;44.422;26.092;2023-03-19T07:07:39;13.90;93.60
10447;DHT22;5271;44.422;26.092;2023-03-19T07:10:06;13.90;93.50
10447;DHT22;5271;44.422;26.092;2023-03-19T07:12:34;13.90;93.40
10447;DHT22;5271;44.422;26.092;2023-03-19T07:15:01;14.00;93.40
10447;DHT22;5271;44.422;26.092;2023-03-19T07:17:29;14.00;93.40
10447;DHT22;5271;44.422;26.092;2023-03-19T07:19:57;14.00;93.30
10447;DHT22;5271;44.422;26.092;2023-03-19T07:22:24;14.00;93.80
10447;DHT22;5271;44.422;26.092;2023-03-19T07:24:51;14.10;93.40
10447;DHT22;5271;44.422;26.092;2023-03-19T07:27:18;14.10;93.20
10447;DHT22;5271;44.422;26.092;2023-03-19T07:29:45;14.20;93.40
10447;DHT22;5271;44.422;26.092;2023-03-19T07:32:12;14.20;93.30
10447;DHT22;5271;44.422;26.092;2023-03-19T07:34:39;14.20;93.30
10447;DHT22;5271;44.422;26.092;2023-03-19T07:37:07;14.20;93.10
10447;DHT22;5271;44.422;26.092;2023-03-19T07:39:34;14.20;93.20
10447;DHT22;5271;44.422;26.092;2023-03-19T07:42:01;14.10;93.30
10447;DHT22;5271;44.422;26.092;2023-03-19T07:44:28;14.10;93.30
10447;DHT22;5271;44.422;26.092;2023-03-19T07:46:55;14.20;93.40
10447;DHT22;5271;44.422;26.092;2023-03-19T07:49:22;14.20;93.60
10447;DHT22;5271;44.422;26.092;2023-03-19T07:51:49;14.20;93.90
10447;DHT22;5271;44.422;26.092;2023-03-19T07:54:18;14.20;93.90
10447;DHT22;5271;44.422;26.092;2023-03-19T07:56:45;14.20;93.90
10447;DHT22;5271;44.422;26.092;2023-03-19T07:59:11;14.20;93.90
10447;DHT22;5271;44.422;26.092;2023-03-19T08:01:38;14.20;93.90
10447;DHT22;5271;44.422;26.092;2023-03-19T08:04:06;14.20;94.00
10447;DHT22;5271;44.422;26.092;2023-03-19T08:06:33;14.20;94.00
10447;DHT22;5271;44.422;26.092;2023-03-19T08:08:59;14.20;94.10
10447;DHT22;5271;44.422;26.092;2023-03-19T08:11:28;14.30;93.90
10447;DHT22;5271;44.422;26.092;2023-03-19T08:13:55;14.30;93.90
10447;DHT22;5271;44.422;26.092;2023-03-19T08:16:22;14.30;94.00
10447;DHT22;5271;44.422;26.092;2023-03-19T08:18:49;14.20;94.10
10447;DHT22;5271;44.422;26.092;2023-03-19T08:21:16;14.20;94.20
10447;DHT22;5271;44.422;26.092;2023-03-19T08:23:43;14.30;94.10
10447;DHT22;5271;44.422;26.092;2023-03-19T08:26:10;14.30;94.10
10447;DHT22;5271;44.422;26.092;2023-03-19T08:28:38;14.30;94.00
10447;DHT22;5271;44.422;26.092;2023-03-19T08:31:07;14.30;93.90
10447;DHT22;5271;44.422;26.092;2023-03-19T08:33:35;14.40;93.80
10447;DHT22;5271;44.422;26.092;2023-03-19T08:36:05;14.40;93.90
10447;DHT22;5271;44.422;26.092;2023-03-19T08:38:32;14.40;93.90
10447;DHT22;5271;44.422;26.092;2023-03-19T08:40:59;14.40;93.90
10447;DHT22;5271;44.422;26.092;2023-03-19T08:43:29;14.40;93.90
10447;DHT22;5271;44.422;26.092;2023-03-19T08:45:58;14.50;93.80
10447;DHT22;5271;44.422;26.092;2023-03-19T08:48:25;14.50;93.80
10447;DHT22;5271;44.422;26.092;2023-03-19T08:50:52;14.50;93.70
10447;DHT22;5271;44.422;26.092;2023-03-19T08:53:19;14.50;93.70
10447;DHT22;5271;44.422;26.092;2023-03-19T08:55:51;14.60;93.80
10447;DHT22;5271;44.422;26.092;2023-03-19T08:58:18;14.60;93.70
10447;DHT22;5271;44.422;26.092;2023-03-19T09:00:45;14.60;93.80
10447;DHT22;5271;44.422;26.092;2023-03-19T09:03:15;14.70;94.00
10447;DHT22;5271;44.422;26.092;2023-03-19T09:05:42;14.80;93.50
10447;DHT22;5271;44.422;26.092;2023-03-19T09:08:09;15.00;93.50
10447;DHT22;5271;44.422;26.092;2023-03-19T09:10:36;15.20;93.40
10447;DHT22;5271;44.422;26.092;2023-03-19T09:13:03;15.30;93.30
10447;DHT22;5271;44.422;26.092;2023-03-19T09:15:30;15.60;92.80
10447;DHT22;5271;44.422;26.092;2023-03-19T09:17:57;16.10;92.20
10447;DHT22;5271;44.422;26.092;2023-03-19T09:20:25;16.50;91.30
10447;DHT22;5271;44.422;26.092;2023-03-19T09:22:52;16.80;91.00
10447;DHT22;5271;44.422;26.092;2023-03-19T09:25:19;17.00;90.50
10447;DHT22;5271;44.422;26.092;2023-03-19T09:27:46;17.00;90.40
10447;DHT22;5271;44.422;26.092;2023-03-19T09:30:13;17.00;90.30
10447;DHT22;5271;44.422;26.092;2023-03-19T09:32:40;16.90;90.50
10447;DHT22;5271;44.422;26.092;2023-03-19T09:35:08;16.80;90.50
10447;DHT22;5271;44.422;26.092;2023-03-19T09:37:36;16.80;90.50
10447;DHT22;5271;44.422;26.092;2023-03-19T09:40:04;16.70;90.30
10447;DHT22;5271;44.422;26.092;2023-03-19T09:42:48;16.60;90.30
10447;DHT22;5271;44.422;26.092;2023-03-19T09:45:19;16.60;90.50
10447;DHT22;5271;44.422;26.092;2023-03-19T09:47:48;16.60;90.50
10447;DHT22;5271;44.422;26.092;2023-03-19T09:50:19;16.70;90.00
10447;DHT22;5271;44.422;26.092;2023-03-19T09:52:50;16.70;89.60
10447;DHT22;5271;44.422;26.092;2023-03-19T09:55:31;16.80;89.70
10447;DHT22;5271;44.422;26.092;2023-03-19T09:58:01;16.90;89.10
10447;DHT22;5271;44.422;26.092;2023-03-19T10:00:35;17.00;88.80
10447;DHT22;5271;44.422;26.092;2023-03-19T10:03:12;17.10;88.60
10447;DHT22;5271;44.422;26.092;2023-03-19T10:05:48;17.20;88.50
10447;DHT22;5271;44.422;26.092;2023-03-19T10:08:39;17.30;87.60
10447;DHT22;5271;44.422;26.092;2023-03-19T10:11:23;17.40;87.80
10447;DHT22;5271;44.422;26.092;2023-03-19T10:13:58;17.60;87.30
10447;DHT22;5271;44.422;26.092;2023-03-19T10:16:28;17.80;86.40
10447;DHT22;5271;44.422;26.092;2023-03-19T10:18:58;17.80;86.00
10447;DHT22;5271;44.422;26.092;2023-03-19T10:21:31;17.90;86.30
10447;DHT22;5271;44.422;26.092;2023-03-19T10:24:02;18.10;86.10
10447;DHT22;5271;44.422;26.092;2023-03-19T10:26:32;18.20;85.60
10447;DHT22;5271;44.422;26.092;2023-03-19T10:29:05;18.30;83.90
10447;DHT22;5271;44.422;26.092;2023-03-19T10:31:45;18.30;83.20
10447;DHT22;5271;44.422;26.092;2023-03-19T10:34:26;18.30;83.40
10447;DHT22;5271;44.422;26.092;2023-03-19T10:36:58;18.20;83.20
10447;DHT22;5271;44.422;26.092;2023-03-19T10:39:27;18.00;83.30
10447;DHT22;5271;44.422;26.092;2023-03-19T10:42:03;17.90;83.30
10447;DHT22;5271;44.422;26.092;2023-03-19T10:44:35;17.90;83.60
10447;DHT22;5271;44.422;26.092;2023-03-19T10:47:09;17.90;82.90
10447;DHT22;5271;44.422;26.092;2023-03-19T10:49:37;17.90;83.40
10447;DHT22;5271;44.422;26.092;2023-03-19T10:52:04;18.00;83.10
10447;DHT22;5271;44.422;26.092;2023-03-19T10:54:32;18.00;83.20
10447;DHT22;5271;44.422;26.092;2023-03-19T10:57:09;18.00;83.40
10447;DHT22;5271;44.422;26.092;2023-03-19T10:59:46;18.00;83.50
10447;DHT22;5271;44.422;26.092;2023-03-19T11:02:16;17.90;84.00
10447;DHT22;5271;44.422;26.092;2023-03-19T11:04:44;17.80;84.20
10447;DHT22;5271;44.422;26.092;2023-03-19T11:07:12;17.60;84.30
10447;DHT22;5271;44.422;26.092;2023-03-19T11:09:43;17.50;85.10
10447;DHT22;5271;44.422;26.092;2023-03-19T11:12:17;17.40;85.00
10447;DHT22;5271;44.422;26.092;2023-03-19T11:14:46;17.30;85.40
10447;DHT22;5271;44.422;26.092;2023-03-19T11:17:20;17.40;85.30
10447;DHT22;5271;44.422;26.092;2023-03-19T11:19:51;17.30;85.20
10447;DHT22;5271;44.422;26.092;2023-03-19T11:22:21;17.30;85.30
10447;DHT22;5271;44.422;26.092;2023-03-19T11:24:52;17.20;85.20
10447;DHT22;5271;44.422;26.092;2023-03-19T11:27:28;17.20;85.20
10447;DHT22;5271;44.422;26.092;2023-03-19T11:29:56;17.10;85.40
10447;DHT22;5271;44.422;26.092;2023-03-19T11:32:54;17.10;85.80
10447;DHT22;5271;44.422;26.092;2023-03-19T11:35:24;17.00;85.50
10447;DHT22;5271;44.422;26.092;2023-03-19T11:37:55;17.00;87.80
10447;DHT22;5271;44.422;26.092;2023-03-19T11:40:33;16.90;88.70
10447;DHT22;5271;44.422;26.092;2023-03-19T11:43:26;16.80;90.30
10447;DHT22;5271;44.422;26.092;2023-03-19T11:46:01;16.80;90.60
10447;DHT22;5271;44.422;26.092;2023-03-19T11:48:38;16.80;90.60
10447;DHT22;5271;44.422;26.092;2023-03-19T11:51:09;16.70;90.60
10447;DHT22;5271;44.422;26.092;2023-03-19T11:53:49;16.80;90.60
10447;DHT22;5271;44.422;26.092;2023-03-19T11:56:25;16.80;90.50
10447;DHT22;5271;44.422;26.092;2023-03-19T11:59:15;16.90;90.30
10447;DHT22;5271;44.422;26.092;2023-03-19T12:02:04;17.00;91.40
10447;DHT22;5271;44.422;26.092;2023-03-19T12:04:57;17.10;91.40
10447;DHT22;5271;44.422;26.092;2023-03-19T12:07:32;17.30;90.90
10447;DHT22;5271;44.422;26.092;2023-03-19T12:10:21;17.40;90.70
10447;DHT22;5271;44.422;26.092;2023-03-19T12:12:59;17.40;90.20
10447;DHT22;5271;44.422;26.092;2023-03-19T12:15:35;17.50;90.60
10447;DHT22;5271;44.422;26.092;2023-03-19T12:18:12;17.60;89.50
10447;DHT22;5271;44.422;26.092;2023-03-19T12:20:51;17.70;89.00
10447;DHT22;5271;44.422;26.092;2023-03-19T12:23:33;17.80;87.60
10447;DHT22;5271;44.422;26.092;2023-03-19T12:26:04;18.00;86.80
10447;DHT22;5271;44.422;26.092;2023-03-19T12:28:38;18.00;84.80
10447;DHT22;5271;44.422;26.092;2023-03-19T12:31:52;18.10;85.50
10447;DHT22;5271;44.422;26.092;2023-03-19T12:34:27;18.10;84.90
10447;DHT22;5271;44.422;26.092;2023-03-19T12:37:02;18.10;84.20
10447;DHT22;5271;44.422;26.092;2023-03-19T12:39:34;18.10;84.50
10447;DHT22;5271;44.422;26.092;2023-03-19T12:42:03;18.00;84.60
10447;DHT22;5271;44.422;26.092;2023-03-19T12:44:36;18.00;84.10
10447;DHT22;5271;44.422;26.092;2023-03-19T12:47:05;18.00;84.30
10447;DHT22;5271;44.422;26.092;2023-03-19T12:49:37;18.00;82.80
10447;DHT22;5271;44.422;26.092;2023-03-19T12:52:14;18.00;83.50
10447;DHT22;5271;44.422;26.092;2023-03-19T12:54:46;18.10;83.10
10447;DHT22;5271;44.422;26.092;2023-03-19T12:57:18;18.00;83.40
10447;DHT22;5271;44.422;26.092;2023-03-19T12:59:53;18.00;83.30
10447;DHT22;5271;44.422;26.092;2023-03-19T13:02:27;17.90;84.20
10447;DHT22;5271;44.422;26.092;2023-03-19T13:05:01;17.80;84.30
10447;DHT22;5271;44.422;26.092;2023-03-19T13:07:35;17.90;84.30
10447;DHT22;5271;44.422;26.092;2023-03-19T13:10:08;17.90;84.70
10447;DHT22;5271;44.422;26.092;2023-03-19T13:12:37;17.80;84.50
10447;DHT22;5271;44.422;26.092;2023-03-19T13:15:10;17.80;83.60
10447;DHT22;5271;44.422;26.092;2023-03-19T13:17:51;17.70;83.70
10447;DHT22;5271;44.422;26.092;2023-03-19T13:20:26;17.80;83.40
10447;DHT22;5271;44.422;26.092;2023-03-19T13:22:57;17.70;82.80
10447;DHT22;5271;44.422;26.092;2023-03-19T13:25:30;17.60;83.40
10447;DHT22;5271;44.422;26.092;2023-03-19T13:27:58;17.50;83.70
10447;DHT22;5271;44.422;26.092;2023-03-19T13:30:26;17.40;84.20
10447;DHT22;5271;44.422;26.092;2023-03-19T13:33:02;17.30;85.00
10447;DHT22;5271;44.422;26.092;2023-03-19T13:35:34;17.20;84.20
10447;DHT22;5271;44.422;26.092;2023-03-19T13:38:10;17.20;84.30
10447;DHT22;5271;44.422;26.092;2023-03-19T13:40:45;17.10;84.70
10447;DHT22;5271;44.422;26.092;2023-03-19T13:46:37;17.00;86.60
10447;DHT22;5271;44.422;26.092;2023-03-19T13:49:28;17.00;87.20
10447;DHT22;5271;44.422;26.092;2023-03-19T13:52:02;17.00;87.80
10447;DHT22;5271;44.422;26.092;2023-03-19T13:54:52;17.10;88.10
10447;DHT22;5271;44.422;26.092;2023-03-19T13:57:34;17.20;88.90
10447;DHT22;5271;44.422;26.092;2023-03-19T14:03:21;17.20;88.60
10447;DHT22;5271;44.422;26.092;2023-03-19T14:05:51;17.20;87.70
10447;DHT22;5271;44.422;26.092;2023-03-19T14:08:20;17.20;87.80
10447;DHT22;5271;44.422;26.092;2023-03-19T14:10:50;17.20;87.80
10447;DHT22;5271;44.422;26.092;2023-03-19T14:13:26;17.10;88.30
10447;DHT22;5271;44.422;26.092;2023-03-19T14:16:04;17.10;88.70
10447;DHT22;5271;44.422;26.092;2023-03-19T14:18:37;17.20;88.50
10447;DHT22;5271;44.422;26.092;2023-03-19T14:21:08;17.10;87.40
10447;DHT22;5271;44.422;26.092;2023-03-19T14:23:38;17.10;87.20
10447;DHT22;5271;44.422;26.092;2023-03-19T14:26:11;17.10;87.00
10447;DHT22;5271;44.422;26.092;2023-03-19T14:28:48;17.00;86.30
10447;DHT22;5271;44.422;26.092;2023-03-19T14:31:21;17.00;86.70
10447;DHT22;5271;44.422;26.092;2023-03-19T14:33:55;17.00;87.00
10447;DHT22;5271;44.422;26.092;2023-03-19T14:36:24;17.00;86.10
10447;DHT22;5271;44.422;26.092;2023-03-19T14:38:55;17.10;85.50
10447;DHT22;5271;44.422;26.092;2023-03-19T14:41:25;17.10;85.30
10447;DHT22;5271;44.422;26.092;2023-03-19T14:44:10;17.10;84.80
10447;DHT22;5271;44.422;26.092;2023-03-19T14:47:00;17.10;84.70
10447;DHT22;5271;44.422;26.092;2023-03-19T14:49:55;17.10;85.30
10447;DHT22;5271;44.422;26.092;2023-03-19T14:52:28;17.10;85.60
10447;DHT22;5271;44.422;26.092;2023-03-19T14:54:59;17.20;85.90
10447;DHT22;5271;44.422;26.092;2023-03-19T14:57:27;17.10;85.70
10447;DHT22;5271;44.422;26.092;2023-03-19T14:59:55;17.00;85.50
10447;DHT22;5271;44.422;26.092;2023-03-19T15:02:34;17.00;85.90
10447;DHT22;5271;44.422;26.092;2023-03-19T15:05:06;17.00;86.20
10447;DHT22;5271;44.422;26.092;2023-03-19T15:07:36;16.90;86.00
10447;DHT22;5271;44.422;26.092;2023-03-19T15:10:06;16.90;87.30
10447;DHT22;5271;44.422;26.092;2023-03-19T15:12:45;16.70;90.30
10447;DHT22;5271;44.422;26.092;2023-03-19T15:15:29;16.40;90.50
10447;DHT22;5271;44.422;26.092;2023-03-19T15:17:59;16.10;91.80
10447;DHT22;5271;44.422;26.092;2023-03-19T15:20:32;15.70;91.80
10447;DHT22;5271;44.422;26.092;2023-03-19T15:23:00;15.50;91.10
10447;DHT22;5271;44.422;26.092;2023-03-19T15:25:29;15.40;91.60
10447;DHT22;5271;44.422;26.092;2023-03-19T15:28:04;15.50;92.00
10447;DHT22;5271;44.422;26.092;2023-03-19T15:30:32;15.50;92.30
10447;DHT22;5271;44.422;26.092;2023-03-19T15:32:59;15.60;92.90
10447;DHT22;5271;44.422;26.092;2023-03-19T15:35:30;15.60;93.00
10447;DHT22;5271;44.422;26.092;2023-03-19T15:37:59;15.60;93.80
10447;DHT22;5271;44.422;26.092;2023-03-19T15:40:28;15.70;94.40
10447;DHT22;5271;44.422;26.092;2023-03-19T15:42:58;15.90;95.00
10447;DHT22;5271;44.422;26.092;2023-03-19T15:45:28;16.00;95.00
10447;DHT22;5271;44.422;26.092;2023-03-19T15:48:00;16.00;94.70
10447;DHT22;5271;44.422;26.092;2023-03-19T15:50:32;16.00;94.80
10447;DHT22;5271;44.422;26.092;2023-03-19T15:53:04;16.00;94.90
10447;DHT22;5271;44.422;26.092;2023-03-19T15:55:32;16.00;94.90